sensor_id;sensor_type;location;lat;lon;timestamp;pressure;altitude;pressure_sealevel;temperature;humidity
77454;BME280;66538;53.150;18.160;2023-01-09T00:00:22;100245.13;;;5.30;83.58
77454;BME280;66538;53.150;18.160;2023-01-09T00:03:09;100243.50;;;5.29;83.49
77454;BME280;66538;53.150;18.160;2023-01-09T00:05:36;100240.71;;;5.32;83.52
77454;BME280;66538;53.150;18.160;2023-01-09T00:08:02;100240.99;;;5.30;83.63
77454;BME280;66538;53.150;18.160;2023-01-09T00:10:29;100244.15;;;5.32;83.87
77454;BME280;66538;53.150;18.160;2023-01-09T00:12:56;100241.65;;;5.31;83.37
77454;BME280;66538;53.150;18.160;2023-01-09T00:15:22;100237.58;;;5.25;83.74
77454;BME280;66538;53.150;18.160;2023-01-09T00:17:49;100230.33;;;5.26;83.68
77454;BME280;66538;53.150;18.160;2023-01-09T00:20:16;100230.88;;;5.27;83.90
77454;BME280;66538;53.150;18.160;2023-01-09T00:22:43;100229.67;;;5.29;83.92
77454;BME280;66538;53.150;18.160;2023-01-09T00:25:09;100237.38;;;5.42;83.82
77454;BME280;66538;53.150;18.160;2023-01-09T00:27:36;100238.92;;;5.47;83.53
77454;BME280;66538;53.150;18.160;2023-01-09T00:30:04;100236.30;;;5.48;83.58
77454;BME280;66538;53.150;18.160;2023-01-09T00:32:31;100234.80;;;5.47;83.76
77454;BME280;66538;53.150;18.160;2023-01-09T00:34:57;100239.73;;;5.47;83.53
77454;BME280;66538;53.150;18.160;2023-01-09T00:37:24;100212.52;;;5.19;83.87
77454;BME280;66538;53.150;18.160;2023-01-09T00:39:50;100213.20;;;5.25;83.71
77454;BME280;66538;53.150;18.160;2023-01-09T00:42:20;100216.87;;;5.29;83.41
77454;BME280;66538;53.150;18.160;2023-01-09T00:44:53;100209.08;;;5.31;83.74
77454;BME280;66538;53.150;18.160;2023-01-09T00:47:36;100216.31;;;5.32;83.78
77454;BME280;66538;53.150;18.160;2023-01-09T00:50:07;100217.98;;;5.28;83.81
77454;BME280;66538;53.150;18.160;2023-01-09T00:52:37;100221.33;;;5.30;83.64
77454;BME280;66538;53.150;18.160;2023-01-09T00:55:06;100225.60;;;5.30;83.65
77454;BME280;66538;53.150;18.160;2023-01-09T00:57:33;100224.50;;;5.32;83.62
77454;BME280;66538;53.150;18.160;2023-01-09T01:00:00;100214.45;;;5.33;83.86
77454;BME280;66538;53.150;18.160;2023-01-09T01:02:26;100219.41;;;5.41;83.65
77454;BME280;66538;53.150;18.160;2023-01-09T01:04:53;100225.54;;;5.48;83.69
77454;BME280;66538;53.150;18.160;2023-01-09T01:07:39;100217.73;;;5.47;83.45
77454;BME280;66538;53.150;18.160;2023-01-09T01:10:10;100221.65;;;5.47;83.50
77454;BME280;66538;53.150;18.160;2023-01-09T01:12:38;100219.97;;;5.39;83.80
77454;BME280;66538;53.150;18.160;2023-01-09T01:15:06;100209.13;;;5.23;83.65
77454;BME280;66538;53.150;18.160;2023-01-09T01:17:34;100210.64;;;5.27;83.60
77454;BME280;66538;53.150;18.160;2023-01-09T01:20:03;100207.42;;;5.25;84.24
77454;BME280;66538;53.150;18.160;2023-01-09T01:22:30;100203.94;;;5.25;83.80
77454;BME280;66538;53.150;18.160;2023-01-09T01:24:57;100197.34;;;5.26;83.92
77454;BME280;66538;53.150;18.160;2023-01-09T01:27:24;100189.73;;;5.22;83.49
77454;BME280;66538;53.150;18.160;2023-01-09T01:29:50;100184.99;;;5.21;83.97
77454;BME280;66538;53.150;18.160;2023-01-09T01:32:17;100181.20;;;5.23;84.01
77454;BME280;66538;53.150;18.160;2023-01-09T01:34:43;100185.45;;;5.23;83.66
77454;BME280;66538;53.150;18.160;2023-01-09T01:37:10;100190.40;;;5.30;83.81
77454;BME280;66538;53.150;18.160;2023-01-09T01:39:37;100194.98;;;5.38;83.14
77454;BME280;66538;53.150;18.160;2023-01-09T01:42:04;100192.16;;;5.40;83.76
77454;BME280;66538;53.150;18.160;2023-01-09T01:47:27;100173.86;;;5.11;83.67
77454;BME280;66538;53.150;18.160;2023-01-09T01:49:56;100179.63;;;5.15;83.58
77454;BME280;66538;53.150;18.160;2023-01-09T01:52:23;100174.02;;;5.17;84.09
77454;BME280;66538;53.150;18.160;2023-01-09T01:54:51;100178.08;;;5.19;83.74
77454;BME280;66538;53.150;18.160;2023-01-09T01:57:19;100169.89;;;5.19;84.17
77454;BME280;66538;53.150;18.160;2023-01-09T01:59:52;100165.02;;;5.21;83.67
77454;BME280;66538;53.150;18.160;2023-01-09T02:02:22;100157.75;;;5.20;83.67
77454;BME280;66538;53.150;18.160;2023-01-09T02:04:51;100155.91;;;5.20;83.57
77454;BME280;66538;53.150;18.160;2023-01-09T02:07:19;100157.90;;;5.20;83.85
77454;BME280;66538;53.150;18.160;2023-01-09T02:09:45;100158.18;;;5.20;83.57
77454;BME280;66538;53.150;18.160;2023-01-09T02:12:24;100161.89;;;5.23;83.50
77454;BME280;66538;53.150;18.160;2023-01-09T02:15:05;100158.27;;;5.19;83.66
77454;BME280;66538;53.150;18.160;2023-01-09T02:20:46;100148.55;;;5.21;83.74
77454;BME280;66538;53.150;18.160;2023-01-09T02:34:45;100157.08;;;5.38;83.85
77454;BME280;66538;53.150;18.160;2023-01-09T02:37:35;100162.58;;;5.38;83.62
77454;BME280;66538;53.150;18.160;2023-01-09T02:40:23;100145.78;;;5.16;83.79
77454;BME280;66538;53.150;18.160;2023-01-09T02:42:52;100148.25;;;5.15;84.06
77454;BME280;66538;53.150;18.160;2023-01-09T02:45:20;100147.70;;;5.18;83.86
77454;BME280;66538;53.150;18.160;2023-01-09T02:47:47;100149.31;;;5.21;83.86
77454;BME280;66538;53.150;18.160;2023-01-09T02:50:20;100146.73;;;5.19;83.93
77454;BME280;66538;53.150;18.160;2023-01-09T02:56:15;100150.15;;;5.23;83.87
77454;BME280;66538;53.150;18.160;2023-01-09T03:06:03;100158.99;;;5.43;83.47
77454;BME280;66538;53.150;18.160;2023-01-09T03:08:40;100160.50;;;5.44;83.45
77454;BME280;66538;53.150;18.160;2023-01-09T03:11:08;100159.52;;;5.43;83.48
77454;BME280;66538;53.150;18.160;2023-01-09T03:13:41;100155.08;;;5.41;83.64
77454;BME280;66538;53.150;18.160;2023-01-09T03:16:14;100149.09;;;5.39;83.74
77454;BME280;66538;53.150;18.160;2023-01-09T03:18:43;100141.39;;;5.36;83.93
77454;BME280;66538;53.150;18.160;2023-01-09T03:21:12;100120.50;;;5.09;84.37
77454;BME280;66538;53.150;18.160;2023-01-09T03:23:53;100122.38;;;5.18;83.94
77454;BME280;66538;53.150;18.160;2023-01-09T03:26:21;100112.72;;;5.17;83.97
77454;BME280;66538;53.150;18.160;2023-01-09T03:28:48;100105.11;;;5.20;83.65
77454;BME280;66538;53.150;18.160;2023-01-09T03:31:16;100108.66;;;5.23;84.08
77454;BME280;66538;53.150;18.160;2023-01-09T03:33:43;100107.04;;;5.23;84.07
77454;BME280;66538;53.150;18.160;2023-01-09T03:36:11;100110.66;;;5.24;84.07
77454;BME280;66538;53.150;18.160;2023-01-09T03:38:38;100109.14;;;5.26;83.97
77454;BME280;66538;53.150;18.160;2023-01-09T03:41:05;100105.99;;;5.31;83.68
77454;BME280;66538;53.150;18.160;2023-01-09T03:43:32;100107.23;;;5.33;83.78
77454;BME280;66538;53.150;18.160;2023-01-09T03:45:59;100102.63;;;5.35;83.59
77454;BME280;66538;53.150;18.160;2023-01-09T03:48:26;100109.83;;;5.52;83.54
77454;BME280;66538;53.150;18.160;2023-01-09T03:50:54;100106.85;;;5.55;83.53
77454;BME280;66538;53.150;18.160;2023-01-09T03:53:22;100104.14;;;5.52;83.58
77454;BME280;66538;53.150;18.160;2023-01-09T03:55:51;100100.06;;;5.53;83.41
77454;BME280;66538;53.150;18.160;2023-01-09T03:58:20;100101.28;;;5.51;83.46
77454;BME280;66538;53.150;18.160;2023-01-09T04:00:47;100096.80;;;5.46;83.26
77454;BME280;66538;53.150;18.160;2023-01-09T04:03:15;100079.14;;;5.22;83.75
77454;BME280;66538;53.150;18.160;2023-01-09T04:05:43;100082.39;;;5.23;83.78
77454;BME280;66538;53.150;18.160;2023-01-09T04:08:10;100084.77;;;5.28;83.86
77454;BME280;66538;53.150;18.160;2023-01-09T04:10:37;100085.23;;;5.30;83.83
77454;BME280;66538;53.150;18.160;2023-01-09T04:13:04;100090.48;;;5.32;83.76
77454;BME280;66538;53.150;18.160;2023-01-09T04:15:30;100093.48;;;5.32;83.54
77454;BME280;66538;53.150;18.160;2023-01-09T04:17:57;100092.27;;;5.30;83.72
77454;BME280;66538;53.150;18.160;2023-01-09T04:20:23;100091.44;;;5.31;83.58
77454;BME280;66538;53.150;18.160;2023-01-09T04:22:50;100086.45;;;5.34;83.76
77454;BME280;66538;53.150;18.160;2023-01-09T04:25:16;100081.59;;;5.32;83.82
77454;BME280;66538;53.150;18.160;2023-01-09T04:27:43;100081.29;;;5.34;83.37
77454;BME280;66538;53.150;18.160;2023-01-09T04:30:10;100079.59;;;5.35;83.70
77454;BME280;66538;53.150;18.160;2023-01-09T04:32:37;100075.71;;;5.35;83.34
77454;BME280;66538;53.150;18.160;2023-01-09T04:35:04;100079.26;;;5.47;83.57
77454;BME280;66538;53.150;18.160;2023-01-09T04:37:31;100075.39;;;5.49;83.29
77454;BME280;66538;53.150;18.160;2023-01-09T04:39:57;100079.79;;;5.47;83.48
77454;BME280;66538;53.150;18.160;2023-01-09T04:42:24;100079.71;;;5.44;83.85
77454;BME280;66538;53.150;18.160;2023-01-09T04:44:50;100073.60;;;5.21;83.57
77454;BME280;66538;53.150;18.160;2023-01-09T04:47:20;100081.69;;;5.19;83.70
77454;BME280;66538;53.150;18.160;2023-01-09T04:49:46;100083.69;;;5.19;83.78
77454;BME280;66538;53.150;18.160;2023-01-09T04:52:13;100082.13;;;5.19;83.73
77454;BME280;66538;53.150;18.160;2023-01-09T04:54:40;100082.52;;;5.20;83.67
77454;BME280;66538;53.150;18.160;2023-01-09T04:57:07;100087.27;;;5.22;83.98
77454;BME280;66538;53.150;18.160;2023-01-09T04:59:33;100087.55;;;5.26;83.92
77454;BME280;66538;53.150;18.160;2023-01-09T05:02:00;100093.71;;;5.29;83.60
77454;BME280;66538;53.150;18.160;2023-01-09T05:04:27;100090.88;;;5.30;83.71
77454;BME280;66538;53.150;18.160;2023-01-09T05:06:53;100092.27;;;5.29;83.47
77454;BME280;66538;53.150;18.160;2023-01-09T05:09:20;100092.91;;;5.28;83.75
77454;BME280;66538;53.150;18.160;2023-01-09T05:11:48;100090.65;;;5.26;83.51
77454;BME280;66538;53.150;18.160;2023-01-09T05:14:15;100086.02;;;5.24;83.84
77454;BME280;66538;53.150;18.160;2023-01-09T05:16:42;100083.64;;;5.28;83.72
77454;BME280;66538;53.150;18.160;2023-01-09T05:19:08;100088.77;;;5.46;83.30
77454;BME280;66538;53.150;18.160;2023-01-09T05:21:35;100087.89;;;5.44;83.50
77454;BME280;66538;53.150;18.160;2023-01-09T05:24:02;100094.90;;;5.41;83.44
77454;BME280;66538;53.150;18.160;2023-01-09T05:26:28;100095.15;;;5.41;83.72
77454;BME280;66538;53.150;18.160;2023-01-09T05:28:55;100087.62;;;5.41;83.57
77454;BME280;66538;53.150;18.160;2023-01-09T05:31:23;100068.66;;;5.18;83.60
77454;BME280;66538;53.150;18.160;2023-01-09T05:33:51;100066.55;;;5.19;83.43
77454;BME280;66538;53.150;18.160;2023-01-09T05:36:18;100063.27;;;5.21;83.99
77454;BME280;66538;53.150;18.160;2023-01-09T05:38:45;100058.94;;;5.20;83.64
77454;BME280;66538;53.150;18.160;2023-01-09T05:41:11;100052.53;;;5.20;83.54
77454;BME280;66538;53.150;18.160;2023-01-09T05:43:38;100046.98;;;5.19;83.59
77454;BME280;66538;53.150;18.160;2023-01-09T05:46:05;100039.27;;;5.13;83.85
77454;BME280;66538;53.150;18.160;2023-01-09T05:48:31;100042.32;;;5.11;84.00
77454;BME280;66538;53.150;18.160;2023-01-09T05:50:58;100045.41;;;5.13;83.40
77454;BME280;66538;53.150;18.160;2023-01-09T05:53:24;100036.45;;;5.12;83.83
77454;BME280;66538;53.150;18.160;2023-01-09T05:55:51;100035.33;;;5.12;83.41
77454;BME280;66538;53.150;18.160;2023-01-09T05:58:17;100033.29;;;5.13;83.90
77454;BME280;66538;53.150;18.160;2023-01-09T06:00:44;100027.06;;;5.10;83.54
77454;BME280;66538;53.150;18.160;2023-01-09T06:03:11;100022.23;;;5.04;83.74
77454;BME280;66538;53.150;18.160;2023-01-09T06:05:37;100021.69;;;5.02;83.63
77454;BME280;66538;53.150;18.160;2023-01-09T06:08:04;100024.79;;;4.96;83.89
77454;BME280;66538;53.150;18.160;2023-01-09T06:10:30;100018.42;;;4.83;83.52
77454;BME280;66538;53.150;18.160;2023-01-09T06:12:57;100011.46;;;4.81;83.69
77454;BME280;66538;53.150;18.160;2023-01-09T06:15:24;100019.61;;;4.91;83.80
77454;BME280;66538;53.150;18.160;2023-01-09T06:17:50;100021.38;;;4.95;83.95
77454;BME280;66538;53.150;18.160;2023-01-09T06:20:17;100022.11;;;4.89;83.63
77454;BME280;66538;53.150;18.160;2023-01-09T06:22:44;100017.41;;;4.81;83.79
77454;BME280;66538;53.150;18.160;2023-01-09T06:25:11;100015.84;;;4.75;83.67
77454;BME280;66538;53.150;18.160;2023-01-09T06:27:38;100007.31;;;4.66;83.63
77454;BME280;66538;53.150;18.160;2023-01-09T06:30:06;100003.67;;;4.56;83.84
77454;BME280;66538;53.150;18.160;2023-01-09T06:32:33;99985.84;;;4.25;84.19
77454;BME280;66538;53.150;18.160;2023-01-09T06:34:59;99988.34;;;4.16;84.39
77454;BME280;66538;53.150;18.160;2023-01-09T06:37:26;99990.59;;;4.16;84.54
77454;BME280;66538;53.150;18.160;2023-01-09T06:39:52;99991.07;;;4.12;84.37
77454;BME280;66538;53.150;18.160;2023-01-09T06:42:20;99996.74;;;4.11;84.36
77454;BME280;66538;53.150;18.160;2023-01-09T06:44:47;100007.85;;;4.28;84.65
77454;BME280;66538;53.150;18.160;2023-01-09T06:47:14;100011.93;;;4.27;84.34
77454;BME280;66538;53.150;18.160;2023-01-09T06:49:40;100014.61;;;4.23;84.57
77454;BME280;66538;53.150;18.160;2023-01-09T06:52:07;100021.18;;;4.21;84.74
77454;BME280;66538;53.150;18.160;2023-01-09T06:54:34;100005.35;;;3.99;84.64
77454;BME280;66538;53.150;18.160;2023-01-09T06:57:00;99993.01;;;3.84;84.98
77454;BME280;66538;53.150;18.160;2023-01-09T06:59:27;100000.20;;;3.87;84.77
77454;BME280;66538;53.150;18.160;2023-01-09T07:01:54;100004.50;;;3.93;84.82
77454;BME280;66538;53.150;18.160;2023-01-09T07:04:21;100002.66;;;3.92;84.88
77454;BME280;66538;53.150;18.160;2023-01-09T07:06:48;100017.71;;;4.06;84.43
77454;BME280;66538;53.150;18.160;2023-01-09T07:09:15;100020.77;;;4.05;84.00
77454;BME280;66538;53.150;18.160;2023-01-09T07:11:41;100020.03;;;4.04;84.44
77454;BME280;66538;53.150;18.160;2023-01-09T07:14:08;100021.80;;;4.00;84.23
77454;BME280;66538;53.150;18.160;2023-01-09T07:16:35;100001.02;;;3.76;84.81
77454;BME280;66538;53.150;18.160;2023-01-09T07:19:01;99996.41;;;3.73;85.05
77454;BME280;66538;53.150;18.160;2023-01-09T07:21:28;99996.77;;;3.75;84.98
77454;BME280;66538;53.150;18.160;2023-01-09T07:23:54;100000.52;;;3.81;84.76
77454;BME280;66538;53.150;18.160;2023-01-09T07:26:21;99997.15;;;3.81;84.84
77454;BME280;66538;53.150;18.160;2023-01-09T07:28:48;99987.01;;;3.75;84.71
77454;BME280;66538;53.150;18.160;2023-01-09T07:31:14;99987.55;;;3.79;84.59
77454;BME280;66538;53.150;18.160;2023-01-09T07:33:41;99997.22;;;3.82;84.61
77454;BME280;66538;53.150;18.160;2023-01-09T07:36:08;100004.48;;;3.80;84.71
77454;BME280;66538;53.150;18.160;2023-01-09T07:38:35;100005.51;;;3.84;84.87
77454;BME280;66538;53.150;18.160;2023-01-09T07:41:01;100005.27;;;3.82;84.99
77454;BME280;66538;53.150;18.160;2023-01-09T07:43:28;100010.30;;;3.87;84.43
77454;BME280;66538;53.150;18.160;2023-01-09T07:45:54;100011.66;;;3.89;84.87
77454;BME280;66538;53.150;18.160;2023-01-09T07:48:21;100014.95;;;3.93;84.91
77454;BME280;66538;53.150;18.160;2023-01-09T07:50:47;100022.41;;;3.99;85.12
77454;BME280;66538;53.150;18.160;2023-01-09T07:53:14;100026.28;;;4.01;84.76
77454;BME280;66538;53.150;18.160;2023-01-09T07:55:41;100030.83;;;4.07;84.84
77454;BME280;66538;53.150;18.160;2023-01-09T07:58:08;100044.00;;;4.23;84.93
77454;BME280;66538;53.150;18.160;2023-01-09T08:00:35;100035.40;;;4.26;84.75
77454;BME280;66538;53.150;18.160;2023-01-09T08:03:02;100031.77;;;4.24;84.29
77454;BME280;66538;53.150;18.160;2023-01-09T08:05:28;100033.22;;;4.24;84.13
77454;BME280;66538;53.150;18.160;2023-01-09T08:07:55;100013.34;;;4.04;85.32
77454;BME280;66538;53.150;18.160;2023-01-09T08:10:22;100011.27;;;4.06;84.90
77454;BME280;66538;53.150;18.160;2023-01-09T08:12:49;100012.84;;;4.10;85.05
77454;BME280;66538;53.150;18.160;2023-01-09T08:15:16;100009.61;;;4.13;84.69
77454;BME280;66538;53.150;18.160;2023-01-09T08:17:44;100008.55;;;4.16;84.92
77454;BME280;66538;53.150;18.160;2023-01-09T08:20:12;100010.75;;;4.17;84.94
77454;BME280;66538;53.150;18.160;2023-01-09T08:22:39;100008.54;;;4.19;84.87
77454;BME280;66538;53.150;18.160;2023-01-09T08:25:07;100009.71;;;4.23;85.06
77454;BME280;66538;53.150;18.160;2023-01-09T08:27:34;100003.34;;;4.24;84.68
77454;BME280;66538;53.150;18.160;2023-01-09T08:30:01;100004.31;;;4.24;84.24
77454;BME280;66538;53.150;18.160;2023-01-09T08:32:27;100010.47;;;4.29;84.76
77454;BME280;66538;53.150;18.160;2023-01-09T08:34:54;100004.70;;;4.32;84.78
77454;BME280;66538;53.150;18.160;2023-01-09T08:37:20;100000.22;;;4.34;84.35
77454;BME280;66538;53.150;18.160;2023-01-09T08:39:47;99992.51;;;4.32;84.45
77454;BME280;66538;53.150;18.160;2023-01-09T08:42:13;99985.39;;;4.40;84.95
77454;BME280;66538;53.150;18.160;2023-01-09T08:44:59;99983.48;;;4.43;84.87
77454;BME280;66538;53.150;18.160;2023-01-09T08:47:44;99975.69;;;4.46;84.50
77454;BME280;66538;53.150;18.160;2023-01-09T08:50:11;99969.16;;;4.48;84.86
77454;BME280;66538;53.150;18.160;2023-01-09T08:52:38;99964.68;;;4.51;84.33
77454;BME280;66538;53.150;18.160;2023-01-09T08:55:05;99965.21;;;4.54;84.45
77454;BME280;66538;53.150;18.160;2023-01-09T08:57:32;99954.70;;;4.56;84.33
77454;BME280;66538;53.150;18.160;2023-01-09T08:59:58;99954.00;;;4.59;84.60
77454;BME280;66538;53.150;18.160;2023-01-09T09:02:25;99955.23;;;4.59;84.68
77454;BME280;66538;53.150;18.160;2023-01-09T09:04:52;99950.73;;;4.60;84.38
77454;BME280;66538;53.150;18.160;2023-01-09T09:07:19;99952.79;;;4.65;84.54
77454;BME280;66538;53.150;18.160;2023-01-09T09:09:52;99948.79;;;4.68;84.51
77454;BME280;66538;53.150;18.160;2023-01-09T09:12:20;99939.86;;;4.72;84.24
77454;BME280;66538;53.150;18.160;2023-01-09T09:14:47;99939.46;;;4.78;84.56
77454;BME280;66538;53.150;18.160;2023-01-09T09:17:33;99940.48;;;4.81;84.03
77454;BME280;66538;53.150;18.160;2023-01-09T09:19:59;99937.80;;;4.86;84.25
77454;BME280;66538;53.150;18.160;2023-01-09T09:22:26;99943.00;;;4.90;84.12
77454;BME280;66538;53.150;18.160;2023-01-09T09:24:52;99944.27;;;4.97;84.37
77454;BME280;66538;53.150;18.160;2023-01-09T09:27:19;99943.02;;;5.00;84.09
77454;BME280;66538;53.150;18.160;2023-01-09T09:29:46;99941.31;;;5.06;84.04
77454;BME280;66538;53.150;18.160;2023-01-09T09:32:12;99940.83;;;5.11;83.57
77454;BME280;66538;53.150;18.160;2023-01-09T09:34:39;99937.10;;;5.15;83.63
77454;BME280;66538;53.150;18.160;2023-01-09T09:37:06;99934.38;;;5.16;83.34
77454;BME280;66538;53.150;18.160;2023-01-09T09:39:33;99925.63;;;5.17;83.88
77454;BME280;66538;53.150;18.160;2023-01-09T09:48:07;99909.66;;;5.19;83.18
77454;BME280;66538;53.150;18.160;2023-01-09T09:55:59;99910.39;;;5.38;83.44
77454;BME280;66538;53.150;18.160;2023-01-09T09:58:43;99899.32;;;5.19;83.75
77454;BME280;66538;53.150;18.160;2023-01-09T10:01:18;99901.67;;;5.27;83.47
77454;BME280;66538;53.150;18.160;2023-01-09T10:03:51;99902.77;;;5.31;83.35
77454;BME280;66538;53.150;18.160;2023-01-09T10:06:26;99900.52;;;5.26;83.23
77454;BME280;66538;53.150;18.160;2023-01-09T10:11:50;99911.80;;;5.34;83.27
77454;BME280;66538;53.150;18.160;2023-01-09T10:14:20;99909.05;;;5.38;83.42
77454;BME280;66538;53.150;18.160;2023-01-09T10:17:01;99907.86;;;5.37;83.50
77454;BME280;66538;53.150;18.160;2023-01-09T10:25:56;99886.52;;;5.39;83.24
77454;BME280;66538;53.150;18.160;2023-01-09T10:34:02;99869.13;;;5.45;83.15
77454;BME280;66538;53.150;18.160;2023-01-09T10:37:04;99868.93;;;5.47;83.07
77454;BME280;66538;53.150;18.160;2023-01-09T10:39:36;99883.27;;;5.63;83.22
77454;BME280;66538;53.150;18.160;2023-01-09T10:42:14;99883.25;;;5.61;83.20
77454;BME280;66538;53.150;18.160;2023-01-09T10:44:55;99884.67;;;5.63;83.30
77454;BME280;66538;53.150;18.160;2023-01-09T10:47:29;99873.41;;;5.43;83.57
77454;BME280;66538;53.150;18.160;2023-01-09T10:49:58;99874.23;;;5.38;83.74
77454;BME280;66538;53.150;18.160;2023-01-09T10:52:33;99879.97;;;5.48;83.29
77454;BME280;66538;53.150;18.160;2023-01-09T10:55:23;99883.08;;;5.51;83.71
77454;BME280;66538;53.150;18.160;2023-01-09T10:57:57;99882.90;;;5.51;83.65
77454;BME280;66538;53.150;18.160;2023-01-09T11:00:24;99881.98;;;5.57;83.28
77454;BME280;66538;53.150;18.160;2023-01-09T11:02:52;99882.27;;;5.65;83.18
77454;BME280;66538;53.150;18.160;2023-01-09T11:05:28;99888.92;;;5.80;83.23
77454;BME280;66538;53.150;18.160;2023-01-09T11:08:00;99885.77;;;5.82;83.43
77454;BME280;66538;53.150;18.160;2023-01-09T11:10:54;99882.23;;;5.79;83.27
77454;BME280;66538;53.150;18.160;2023-01-09T11:13:32;99882.20;;;5.76;83.05
77454;BME280;66538;53.150;18.160;2023-01-09T11:16:15;99855.77;;;5.39;83.47
77454;BME280;66538;53.150;18.160;2023-01-09T11:18:58;99860.09;;;5.54;83.88
77454;BME280;66538;53.150;18.160;2023-01-09T11:21:35;99859.05;;;5.57;83.83
77454;BME280;66538;53.150;18.160;2023-01-09T11:26:53;99852.95;;;5.61;84.03
77454;BME280;66538;53.150;18.160;2023-01-09T11:29:40;99860.39;;;5.63;83.87
77454;BME280;66538;53.150;18.160;2023-01-09T11:32:20;99852.67;;;5.60;84.10
77454;BME280;66538;53.150;18.160;2023-01-09T11:34:48;99851.46;;;5.65;84.08
77454;BME280;66538;53.150;18.160;2023-01-09T11:37:25;99858.71;;;5.78;83.84
77454;BME280;66538;53.150;18.160;2023-01-09T11:39:54;99853.87;;;5.80;83.50
77454;BME280;66538;53.150;18.160;2023-01-09T11:42:27;99853.56;;;5.79;84.15
77454;BME280;66538;53.150;18.160;2023-01-09T11:45:19;99855.29;;;5.78;84.25
77454;BME280;66538;53.150;18.160;2023-01-09T11:47:47;99855.05;;;5.77;84.03
77454;BME280;66538;53.150;18.160;2023-01-09T11:50:21;99836.03;;;5.48;84.45
77454;BME280;66538;53.150;18.160;2023-01-09T11:53:14;99833.17;;;5.47;84.90
77454;BME280;66538;53.150;18.160;2023-01-09T11:55:42;99840.30;;;5.57;84.59
77454;BME280;66538;53.150;18.160;2023-01-09T11:58:13;99839.61;;;5.64;84.75
77454;BME280;66538;53.150;18.160;2023-01-09T12:04:06;99849.93;;;5.86;84.07
77454;BME280;66538;53.150;18.160;2023-01-09T12:09:32;99840.16;;;5.83;84.31
77454;BME280;66538;53.150;18.160;2023-01-09T12:15:32;99830.00;;;5.81;84.51
77454;BME280;66538;53.150;18.160;2023-01-09T12:18:10;99808.92;;;5.57;84.61
77454;BME280;66538;53.150;18.160;2023-01-09T12:26:18;99812.02;;;5.76;84.74
77454;BME280;66538;53.150;18.160;2023-01-09T12:32:00;99803.59;;;5.80;84.66
77454;BME280;66538;53.150;18.160;2023-01-09T12:34:46;99816.84;;;6.00;84.45
77454;BME280;66538;53.150;18.160;2023-01-09T12:40:27;99813.80;;;6.00;84.14
77454;BME280;66538;53.150;18.160;2023-01-09T12:46:10;99804.05;;;5.90;84.50
77454;BME280;66538;53.150;18.160;2023-01-09T12:54:38;99782.73;;;5.77;84.61
77454;BME280;66538;53.150;18.160;2023-01-09T12:57:43;99787.38;;;5.84;84.67
77454;BME280;66538;53.150;18.160;2023-01-09T13:00:17;99784.25;;;5.84;84.92
77454;BME280;66538;53.150;18.160;2023-01-09T13:05:36;99785.16;;;5.92;84.38
77454;BME280;66538;53.150;18.160;2023-01-09T13:11:00;99795.51;;;6.09;84.20
77454;BME280;66538;53.150;18.160;2023-01-09T13:13:44;99795.53;;;6.07;84.53
77454;BME280;66538;53.150;18.160;2023-01-09T13:16:26;99791.80;;;6.04;84.16
77454;BME280;66538;53.150;18.160;2023-01-09T13:21:33;99769.70;;;5.78;84.62
77454;BME280;66538;53.150;18.160;2023-01-09T13:24:21;99765.38;;;5.83;84.77
77454;BME280;66538;53.150;18.160;2023-01-09T13:26:57;99764.77;;;5.81;84.89
77454;BME280;66538;53.150;18.160;2023-01-09T13:29:36;99764.14;;;5.81;84.83
77454;BME280;66538;53.150;18.160;2023-01-09T13:34:51;99766.39;;;5.89;85.10
77454;BME280;66538;53.150;18.160;2023-01-09T13:37:21;99782.30;;;6.12;84.82
77454;BME280;66538;53.150;18.160;2023-01-09T13:39:56;99783.10;;;6.10;84.75
77454;BME280;66538;53.150;18.160;2023-01-09T13:42:23;99781.21;;;6.08;84.70
77454;BME280;66538;53.150;18.160;2023-01-09T13:45:20;99786.86;;;6.07;84.52
77454;BME280;66538;53.150;18.160;2023-01-09T13:50:49;99769.61;;;5.72;85.20
77454;BME280;66538;53.150;18.160;2023-01-09T13:58:28;99782.66;;;5.95;84.98
77454;BME280;66538;53.150;18.160;2023-01-09T14:03:35;99789.80;;;6.03;85.25
77454;BME280;66538;53.150;18.160;2023-01-09T14:06:14;99803.45;;;6.18;85.06
77454;BME280;66538;53.150;18.160;2023-01-09T14:08:43;99808.86;;;6.20;84.93
77454;BME280;66538;53.150;18.160;2023-01-09T14:11:17;99807.17;;;6.16;84.53
77454;BME280;66538;53.150;18.160;2023-01-09T14:13:45;99808.71;;;6.13;84.94
77454;BME280;66538;53.150;18.160;2023-01-09T14:16:21;99813.48;;;6.10;84.81
77454;BME280;66538;53.150;18.160;2023-01-09T14:18:54;99796.55;;;5.82;85.13
77454;BME280;66538;53.150;18.160;2023-01-09T14:21:23;99801.80;;;5.76;85.14
77454;BME280;66538;53.150;18.160;2023-01-09T14:23:58;99806.05;;;5.83;85.58
77454;BME280;66538;53.150;18.160;2023-01-09T14:35:14;99827.85;;;6.05;85.24
77454;BME280;66538;53.150;18.160;2023-01-09T14:37:44;99828.55;;;6.04;85.25
77454;BME280;66538;53.150;18.160;2023-01-09T14:40:20;99830.09;;;6.00;85.04
77454;BME280;66538;53.150;18.160;2023-01-09T14:42:51;99812.18;;;5.68;85.36
77454;BME280;66538;53.150;18.160;2023-01-09T14:45:22;99820.84;;;5.74;85.40
77454;BME280;66538;53.150;18.160;2023-01-09T14:48:10;99824.33;;;5.73;85.97
77454;BME280;66538;53.150;18.160;2023-01-09T14:50:42;99822.83;;;5.73;85.53
77454;BME280;66538;53.150;18.160;2023-01-09T14:55:55;99827.98;;;5.78;85.83
77454;BME280;66538;53.150;18.160;2023-01-09T14:58:31;99840.02;;;5.95;85.80
77454;BME280;66538;53.150;18.160;2023-01-09T15:01:11;99852.34;;;6.00;85.91
77454;BME280;66538;53.150;18.160;2023-01-09T15:03:44;99847.90;;;5.96;85.33
77454;BME280;66538;53.150;18.160;2023-01-09T15:06:28;99853.89;;;6.00;85.55
77454;BME280;66538;53.150;18.160;2023-01-09T15:09:00;99859.70;;;5.98;85.64
77454;BME280;66538;53.150;18.160;2023-01-09T15:11:28;99840.20;;;5.71;85.51